createdAt,value
2023-01-19T00:00:18.035Z,27.00
2023-01-19T00:02:47.607Z,27.40
2023-01-19T00:05:16.210Z,26.83
2023-01-19T00:07:44.515Z,26.70
2023-01-19T00:10:13.018Z,22.17
2023-01-19T00:12:41.493Z,20.67
2023-01-19T00:15:11.128Z,20.93
2023-01-19T00:17:42.350Z,20.07
2023-01-19T00:20:11.827Z,21.13
2023-01-19T00:22:39.736Z,21.07
2023-01-19T00:25:08.408Z,21.03
2023-01-19T00:27:36.644Z,20.67
2023-01-19T00:30:05.023Z,21.10
2023-01-19T00:32:32.971Z,20.87
2023-01-19T00:35:02.764Z,20.67
2023-01-19T00:37:30.826Z,21.33
2023-01-19T00:39:58.947Z,21.57
2023-01-19T00:42:40.875Z,21.50
2023-01-19T00:45:10.743Z,21.37
2023-01-19T00:47:39.571Z,21.90
2023-01-19T00:50:11.916Z,22.33
2023-01-19T00:52:40.193Z,22.33
2023-01-19T00:55:09.658Z,21.60
2023-01-19T00:57:37.885Z,21.43
2023-01-19T01:00:07.447Z,21.93
2023-01-19T01:02:36.967Z,21.43
2023-01-19T01:05:06.421Z,22.23
2023-01-19T01:07:40.694Z,22.60
2023-01-19T01:10:10.375Z,21.73
2023-01-19T01:12:39.177Z,22.50
2023-01-19T01:15:09.101Z,21.70
2023-01-19T01:17:37.743Z,21.60
2023-01-19T01:20:06.886Z,21.53
2023-01-19T01:22:36.481Z,21.50
2023-01-19T01:25:04.984Z,21.53
2023-01-19T01:27:33.323Z,22.07
2023-01-19T01:30:01.442Z,19.93
2023-01-19T01:32:29.899Z,21.13
2023-01-19T01:34:57.896Z,21.10
2023-01-19T01:37:26.287Z,20.93
2023-01-19T01:39:55.678Z,21.43
2023-01-19T01:42:28.806Z,21.27
2023-01-19T01:44:58.541Z,21.57
2023-01-19T01:47:31.897Z,21.27
2023-01-19T01:50:06.101Z,21.23
2023-01-19T01:52:36.529Z,21.97
2023-01-19T01:55:08.015Z,21.80
2023-01-19T01:57:37.657Z,21.93
2023-01-19T02:00:08.527Z,21.80
2023-01-19T02:02:53.535Z,21.80
2023-01-19T02:05:25.483Z,21.83
2023-01-19T02:08:17.325Z,22.13
2023-01-19T02:11:05.177Z,22.23
2023-01-19T02:13:36.845Z,22.20
2023-01-19T02:16:09.199Z,22.07
2023-01-19T02:18:39.098Z,21.90
2023-01-19T02:21:12.821Z,21.53
2023-01-19T02:23:45.237Z,21.60
2023-01-19T02:26:16.500Z,21.50
2023-01-19T02:28:47.232Z,21.80
2023-01-19T02:31:16.240Z,21.37
2023-01-19T02:33:44.622Z,21.40
2023-01-19T02:36:16.385Z,21.67
2023-01-19T02:38:48.126Z,21.53
2023-01-19T02:41:23.444Z,21.90
2023-01-19T02:43:52.289Z,21.60
2023-01-19T02:46:20.500Z,21.73
2023-01-19T02:48:48.576Z,21.63
2023-01-19T02:51:19.353Z,21.53
2023-01-19T02:54:12.278Z,22.17
2023-01-19T02:56:51.915Z,21.80
2023-01-19T02:59:30.725Z,21.53
2023-01-19T03:02:16.771Z,22.10
2023-01-19T03:04:58.444Z,22.03
2023-01-19T03:07:35.733Z,22.13
2023-01-19T03:10:15.728Z,22.20
2023-01-19T03:12:48.459Z,22.30
2023-01-19T03:15:22.461Z,22.00
2023-01-19T03:17:52.440Z,22.57
2023-01-19T03:20:24.692Z,23.00
2023-01-19T03:22:58.514Z,22.60
2023-01-19T03:25:32.415Z,22.80
2023-01-19T03:28:00.611Z,23.03
2023-01-19T03:30:32.895Z,23.30
2023-01-19T03:33:03.301Z,22.87
2023-01-19T03:35:36.480Z,22.17
2023-01-19T03:38:10.772Z,23.03
2023-01-19T03:40:41.558Z,22.97
2023-01-19T03:43:10.493Z,22.83
2023-01-19T03:45:40.349Z,23.43
2023-01-19T03:48:09.356Z,23.17
2023-01-19T03:50:37.755Z,23.87
2023-01-19T03:53:11.444Z,24.00
2023-01-19T03:55:43.368Z,23.43
2023-01-19T03:58:11.715Z,23.37
2023-01-19T04:00:40.695Z,23.10
2023-01-19T04:03:15.010Z,23.07
2023-01-19T04:05:43.305Z,23.37
2023-01-19T04:08:12.017Z,23.10
2023-01-19T04:10:41.520Z,23.30
2023-01-19T04:13:09.567Z,20.40
2023-01-19T04:15:37.759Z,20.20
2023-01-19T04:18:07.166Z,20.93
2023-01-19T04:20:35.168Z,20.37
2023-01-19T04:23:03.850Z,21.60
2023-01-19T04:25:32.540Z,20.73
2023-01-19T04:28:02.970Z,21.30
2023-01-19T04:30:31.274Z,22.10
2023-01-19T04:33:01.076Z,22.00
2023-01-19T04:35:29.397Z,22.97
2023-01-19T04:37:57.629Z,23.30
2023-01-19T04:40:25.846Z,23.33
2023-01-19T04:42:54.589Z,24.33
2023-01-19T04:45:23.955Z,23.40
2023-01-19T04:47:54.371Z,22.67
2023-01-19T04:50:22.799Z,23.27
2023-01-19T04:52:52.184Z,23.23
2023-01-19T04:55:20.931Z,23.20
2023-01-19T04:57:54.451Z,22.63
2023-01-19T05:06:08.282Z,22.47
2023-01-19T05:08:36.543Z,22.40
2023-01-19T05:11:05.725Z,22.93
2023-01-19T05:13:34.975Z,22.13
2023-01-19T05:16:06.419Z,22.37
2023-01-19T05:18:37.378Z,23.97
2023-01-19T05:21:08.375Z,22.77
2023-01-19T05:23:36.860Z,23.13
2023-01-19T05:26:06.636Z,23.77
2023-01-19T05:28:35.756Z,22.50
2023-01-19T05:31:04.247Z,22.03
2023-01-19T05:33:32.874Z,21.07
2023-01-19T05:36:01.765Z,20.23
2023-01-19T05:38:35.843Z,19.93
2023-01-19T05:41:04.723Z,18.50
2023-01-19T05:43:33.098Z,18.83
2023-01-19T05:46:01.522Z,19.47
2023-01-19T05:48:30.269Z,19.80
2023-01-19T05:51:00.286Z,21.53
2023-01-19T05:53:30.203Z,21.03
2023-01-19T05:56:01.464Z,21.60
2023-01-19T05:58:38.491Z,22.03
2023-01-19T06:01:09.607Z,21.17
2023-01-19T06:04:04.073Z,22.40
2023-01-19T06:09:33.976Z,21.77
2023-01-19T06:12:09.208Z,22.80
2023-01-19T06:14:39.412Z,24.40
2023-01-19T06:17:09.161Z,23.07
2023-01-19T06:25:35.267Z,25.00
2023-01-19T06:28:04.034Z,24.50
2023-01-19T06:30:32.778Z,24.87
2023-01-19T06:33:01.516Z,24.70
2023-01-19T06:35:30.318Z,25.57
2023-01-19T06:37:58.301Z,25.30
2023-01-19T06:40:26.480Z,25.97
2023-01-19T06:42:55.961Z,26.80
2023-01-19T06:45:24.063Z,26.20
2023-01-19T06:47:52.069Z,27.03
2023-01-19T06:50:23.188Z,27.13
2023-01-19T06:52:51.655Z,27.07
2023-01-19T06:55:20.045Z,27.67
2023-01-19T06:57:48.262Z,27.67
2023-01-19T07:00:20.256Z,27.60
2023-01-19T07:02:48.185Z,27.97
2023-01-19T07:05:17.102Z,27.97
2023-01-19T07:07:46.084Z,27.93
2023-01-19T07:10:15.830Z,28.77
2023-01-19T07:12:46.499Z,27.80
2023-01-19T07:15:15.025Z,27.50
2023-01-19T07:17:44.828Z,26.30
2023-01-19T07:20:14.533Z,25.13
2023-01-19T07:22:45.682Z,24.93
2023-01-19T07:25:14.447Z,23.57
2023-01-19T07:27:45.203Z,22.90
2023-01-19T07:30:16.111Z,22.30
2023-01-19T07:32:45.899Z,22.03
2023-01-19T07:35:14.415Z,21.73
2023-01-19T07:37:42.483Z,20.40
2023-01-19T07:40:11.856Z,20.93
2023-01-19T07:42:40.054Z,21.37
2023-01-19T07:45:09.018Z,21.03
2023-01-19T07:47:37.107Z,21.57
2023-01-19T07:50:08.071Z,22.27
2023-01-19T07:52:35.983Z,23.33
2023-01-19T07:55:04.238Z,23.37
2023-01-19T07:57:32.429Z,23.97
2023-01-19T08:00:00.472Z,22.07
2023-01-19T08:02:28.767Z,22.10
2023-01-19T08:04:57.236Z,22.43
2023-01-19T08:07:26.690Z,22.60
2023-01-19T08:09:55.432Z,22.30
2023-01-19T08:12:23.975Z,23.43
2023-01-19T08:14:52.194Z,24.50
2023-01-19T08:17:20.580Z,23.07
2023-01-19T08:19:48.633Z,23.83
2023-01-19T08:22:16.884Z,24.03
2023-01-19T08:24:46.181Z,23.40
2023-01-19T08:27:16.871Z,24.03
2023-01-19T08:29:46.173Z,23.10
2023-01-19T08:32:22.199Z,23.80
2023-01-19T08:34:51.912Z,22.87
2023-01-19T08:37:20.376Z,23.23
2023-01-19T08:39:50.618Z,22.47
2023-01-19T08:42:19.394Z,22.77
2023-01-19T08:44:57.669Z,21.73
2023-01-19T08:47:26.852Z,21.23
2023-01-19T08:49:55.570Z,22.13
2023-01-19T08:52:30.166Z,21.90
2023-01-19T08:55:01.779Z,21.17
2023-01-19T08:57:30.497Z,21.63
2023-01-19T09:00:01.605Z,21.00
2023-01-19T09:02:31.591Z,20.30
2023-01-19T09:05:00.151Z,20.50
2023-01-19T09:10:43.632Z,19.97
2023-01-19T09:13:41.750Z,18.37
2023-01-19T09:16:19.793Z,18.10
2023-01-19T09:21:57.078Z,17.07
2023-01-19T09:24:50.317Z,15.77
2023-01-19T09:27:53.269Z,16.87
2023-01-19T09:30:47.211Z,15.90
2023-01-19T09:33:18.041Z,15.10
2023-01-19T09:39:02.925Z,12.10
2023-01-19T09:41:48.662Z,8.73
2023-01-19T09:44:55.534Z,6.20
2023-01-19T09:47:28.532Z,3.60
2023-01-19T09:50:03.364Z,1.93
2023-01-19T09:52:48.917Z,1.97
2023-01-19T09:55:34.585Z,1.43
2023-01-19T09:58:23.644Z,1.30
2023-01-19T10:00:58.942Z,1.23
2023-01-19T10:03:29.997Z,1.00
2023-01-19T10:06:03.867Z,1.10
2023-01-19T10:08:38.723Z,1.30
2023-01-19T10:11:20.203Z,1.13
2023-01-19T10:13:52.327Z,1.30
2023-01-19T10:16:32.714Z,1.20
2023-01-19T10:19:13.262Z,1.30
2023-01-19T10:21:44.263Z,1.33
2023-01-19T10:24:19.008Z,1.43
2023-01-19T10:26:49.791Z,1.30
2023-01-19T10:29:23.095Z,0.90
2023-01-19T10:31:54.133Z,1.27
2023-01-19T10:34:25.353Z,1.20
2023-01-19T10:37:03.656Z,1.20
2023-01-19T10:39:34.035Z,1.10
2023-01-19T10:42:04.715Z,1.30
2023-01-19T10:44:38.179Z,1.33
2023-01-19T10:47:16.930Z,1.23
2023-01-19T10:49:45.907Z,1.23
2023-01-19T10:52:24.897Z,1.20
2023-01-19T10:54:53.332Z,1.30
2023-01-19T10:57:29.070Z,0.97
2023-01-19T10:59:57.471Z,1.20
2023-01-19T11:02:29.062Z,1.50
2023-01-19T11:04:59.141Z,1.20
2023-01-19T11:07:30.839Z,1.20
2023-01-19T11:10:23.134Z,1.10
2023-01-19T11:13:02.664Z,1.13
2023-01-19T11:15:35.903Z,1.47
2023-01-19T11:18:07.485Z,1.00
2023-01-19T11:20:49.453Z,1.50
2023-01-19T11:23:26.528Z,1.20
2023-01-19T11:25:58.131Z,1.30
2023-01-19T11:28:33.100Z,0.70
2023-01-19T11:31:07.081Z,1.00
2023-01-19T11:34:06.744Z,1.20
2023-01-19T11:36:37.863Z,0.80
2023-01-19T11:39:28.477Z,1.30
2023-01-19T11:42:12.657Z,1.13
2023-01-19T11:45:01.319Z,1.47
2023-01-19T11:47:52.231Z,1.10
2023-01-19T11:50:50.349Z,1.33
2023-01-19T12:04:44.415Z,1.00
2023-01-19T12:07:19.155Z,2.13
2023-01-19T12:09:50.983Z,1.37
2023-01-19T12:12:28.297Z,1.57
2023-01-19T12:15:00.763Z,1.43
2023-01-19T12:17:31.672Z,1.47
2023-01-19T12:20:14.590Z,1.40
2023-01-19T12:22:53.276Z,1.40
2023-01-19T12:25:23.940Z,1.03
2023-01-19T12:27:53.167Z,1.57
2023-01-19T12:30:23.995Z,1.30
2023-01-19T12:32:52.200Z,1.20
2023-01-19T12:36:00.001Z,1.03
2023-01-19T12:38:49.156Z,1.60
2023-01-19T12:41:36.994Z,1.63
2023-01-19T12:47:41.972Z,1.30
2023-01-19T12:50:19.476Z,1.57
2023-01-19T13:32:18.961Z,1.10
2023-01-19T13:34:52.029Z,1.27
2023-01-19T13:37:23.303Z,1.17
2023-01-19T13:39:55.334Z,1.27
2023-01-19T13:42:32.112Z,1.53
2023-01-19T13:45:03.320Z,1.53
2023-01-19T13:47:40.965Z,1.30
2023-01-19T13:50:21.592Z,1.40
2023-01-19T13:52:51.510Z,1.20
2023-01-19T13:55:20.860Z,1.40
2023-01-19T13:57:51.127Z,1.23
2023-01-19T14:00:22.821Z,1.00
2023-01-19T14:03:21.592Z,0.87
2023-01-19T14:05:52.918Z,1.10
2023-01-19T14:08:22.411Z,1.20
2023-01-19T14:11:02.684Z,1.40
2023-01-19T14:13:32.980Z,0.87
2023-01-19T14:16:06.252Z,1.07
2023-01-19T14:18:38.062Z,1.17
2023-01-19T14:21:09.210Z,1.57
2023-01-19T14:23:42.135Z,0.93
2023-01-19T14:26:42.375Z,1.20
2023-01-19T14:29:26.751Z,1.30
2023-01-19T14:32:07.905Z,1.00
2023-01-19T14:34:41.626Z,1.27
2023-01-19T14:37:22.829Z,1.13
2023-01-19T14:39:55.167Z,1.07
2023-01-19T14:42:27.236Z,1.00
2023-01-19T14:44:58.357Z,0.90
2023-01-19T14:47:34.760Z,1.73
2023-01-19T14:50:10.838Z,0.90
2023-01-19T14:52:42.487Z,1.10
2023-01-19T14:55:23.134Z,1.40
2023-01-19T14:57:51.633Z,1.13
2023-01-19T15:00:21.900Z,1.03
2023-01-19T15:02:50.531Z,1.43
2023-01-19T15:05:20.806Z,1.53
2023-01-19T15:07:49.414Z,1.10
2023-01-19T15:10:22.091Z,1.00
2023-01-19T15:12:52.282Z,1.20
2023-01-19T15:15:25.998Z,1.50
2023-01-19T15:17:56.277Z,1.27
2023-01-19T15:20:26.225Z,1.30
2023-01-19T15:22:54.660Z,1.30
2023-01-19T15:25:26.200Z,1.30
2023-01-19T15:27:58.399Z,1.37
2023-01-19T15:30:30.268Z,1.57
2023-01-19T15:32:59.024Z,1.43
2023-01-19T15:35:29.021Z,1.40
2023-01-19T15:37:57.524Z,1.20
2023-01-19T15:40:27.623Z,1.67
2023-01-19T15:42:56.119Z,1.53
2023-01-19T15:45:40.206Z,1.50
2023-01-19T15:48:11.047Z,1.63
2023-01-19T15:50:42.762Z,1.63
2023-01-19T15:53:15.606Z,1.40
2023-01-19T15:55:44.026Z,2.00
2023-01-19T15:58:14.108Z,1.40
2023-01-19T16:00:43.199Z,1.50
2023-01-19T16:03:12.771Z,1.60
2023-01-19T16:05:43.606Z,1.30
2023-01-19T16:08:12.498Z,1.50
2023-01-19T16:10:40.954Z,1.80
2023-01-19T16:13:09.732Z,1.47
2023-01-19T16:15:39.283Z,1.57
2023-01-19T16:18:08.044Z,1.23
2023-01-19T16:20:37.712Z,1.80
2023-01-19T16:23:16.087Z,1.67
2023-01-19T16:25:45.160Z,1.70
2023-01-19T16:28:13.319Z,1.87
2023-01-19T16:30:41.739Z,2.20
2023-01-19T16:33:11.674Z,1.57
2023-01-19T16:35:40.517Z,1.53
2023-01-19T16:38:28.884Z,1.90
2023-01-19T16:41:03.751Z,1.80
2023-01-19T16:43:32.259Z,1.40
2023-01-19T16:46:02.661Z,1.23
2023-01-19T16:48:32.290Z,1.50
2023-01-19T16:51:02.692Z,1.37
2023-01-19T16:53:34.775Z,1.80
2023-01-19T16:56:06.439Z,3.23
2023-01-19T16:58:34.996Z,4.07
2023-01-19T17:01:08.380Z,5.67
2023-01-19T17:03:37.852Z,8.50
2023-01-19T17:06:06.452Z,12.27
2023-01-19T17:08:36.732Z,15.53
2023-01-19T17:11:10.965Z,18.30
2023-01-19T17:13:39.954Z,20.73
2023-01-19T17:16:08.894Z,22.03
2023-01-19T17:18:38.371Z,22.57
2023-01-19T17:21:08.544Z,25.03
2023-01-19T17:23:43.053Z,25.80
2023-01-19T17:26:11.406Z,25.53
2023-01-19T17:28:40.421Z,27.40
2023-01-19T17:31:09.616Z,28.63
2023-01-19T17:33:38.169Z,29.03
2023-01-19T17:36:07.831Z,30.30
2023-01-19T17:38:37.979Z,29.23
2023-01-19T17:41:13.433Z,29.37
2023-01-19T17:43:41.462Z,29.63
2023-01-19T17:46:09.782Z,30.07
2023-01-19T17:48:38.254Z,29.30
2023-01-19T17:51:08.021Z,28.87
2023-01-19T17:53:39.353Z,29.97
2023-01-19T17:56:14.420Z,30.60
2023-01-19T17:58:43.224Z,28.30
2023-01-19T18:01:12.986Z,29.73
2023-01-19T18:03:41.588Z,30.50
2023-01-19T18:06:10.354Z,29.73
2023-01-19T18:08:41.688Z,28.40
2023-01-19T18:11:11.516Z,28.97
2023-01-19T18:13:42.818Z,31.70
2023-01-19T18:16:13.160Z,30.17
2023-01-19T18:18:41.699Z,30.40
2023-01-19T18:21:13.091Z,31.00
2023-01-19T18:23:43.659Z,29.67
2023-01-19T18:26:14.306Z,28.73
2023-01-19T18:28:42.227Z,29.03
2023-01-19T18:31:11.365Z,29.07
2023-01-19T18:33:40.128Z,28.90
2023-01-19T18:36:10.027Z,28.87
2023-01-19T18:38:38.903Z,28.77
2023-01-19T18:41:11.277Z,29.03
2023-01-19T18:43:40.043Z,31.93
2023-01-19T18:46:09.189Z,36.93
2023-01-19T18:48:38.408Z,35.83
2023-01-19T18:51:07.628Z,30.40
2023-01-19T18:53:36.562Z,30.90
2023-01-19T18:56:05.895Z,30.23
2023-01-19T18:58:39.067Z,31.93
2023-01-19T19:01:22.314Z,32.87
2023-01-19T19:03:50.706Z,35.90
2023-01-19T19:06:20.716Z,30.73
2023-01-19T19:08:50.369Z,30.00
2023-01-19T19:11:19.396Z,29.13
2023-01-19T19:13:53.251Z,27.20
2023-01-19T19:16:21.238Z,28.03
2023-01-19T19:18:50.345Z,27.50
2023-01-19T19:21:20.249Z,28.17
2023-01-19T19:23:52.363Z,28.63
2023-01-19T19:26:20.706Z,28.00
2023-01-19T19:28:50.097Z,28.93
2023-01-19T19:31:20.698Z,28.73
2023-01-19T19:33:50.776Z,30.00
2023-01-19T19:36:20.050Z,28.90
2023-01-19T19:38:48.268Z,29.57
2023-01-19T19:41:18.286Z,32.17
2023-01-19T19:43:46.343Z,32.13
2023-01-19T19:46:17.805Z,31.87
2023-01-19T19:48:46.197Z,31.80
2023-01-19T19:51:18.973Z,31.73
2023-01-19T19:53:50.844Z,31.97
2023-01-19T19:56:21.090Z,32.73
2023-01-19T19:58:50.439Z,31.97
2023-01-19T20:01:33.926Z,31.60
2023-01-19T20:04:07.209Z,32.83
2023-01-19T20:06:38.730Z,32.13
2023-01-19T20:09:08.908Z,33.70
2023-01-19T20:11:37.907Z,32.37
2023-01-19T20:14:07.281Z,31.90
2023-01-19T20:16:42.655Z,31.30
2023-01-19T20:19:11.233Z,31.63
2023-01-19T20:21:42.982Z,31.90
2023-01-19T20:24:14.462Z,31.43
2023-01-19T20:26:44.661Z,32.67
2023-01-19T20:29:12.932Z,32.07
2023-01-19T20:31:46.559Z,30.27
2023-01-19T20:34:17.221Z,30.57
2023-01-19T20:37:10.241Z,31.97
2023-01-19T20:39:48.488Z,31.90
2023-01-19T20:58:31.246Z,32.33
2023-01-19T21:00:59.461Z,32.07
2023-01-19T21:03:29.639Z,31.93
2023-01-19T21:05:59.574Z,32.27
2023-01-19T21:08:27.856Z,32.10
2023-01-19T21:10:57.315Z,31.23
2023-01-19T21:13:25.908Z,32.63
2023-01-19T21:15:55.902Z,32.17
2023-01-19T21:18:25.089Z,31.13
2023-01-19T21:20:53.148Z,32.03
2023-01-19T21:23:21.281Z,30.97
2023-01-19T21:39:26.448Z,31.03
2023-01-19T21:41:55.662Z,30.07
2023-01-19T21:44:28.467Z,30.17
2023-01-19T21:52:14.199Z,29.17
2023-01-19T21:54:44.103Z,29.03
2023-01-19T21:57:15.196Z,29.00
2023-01-19T21:59:43.338Z,29.77
2023-01-19T22:02:13.065Z,29.47
2023-01-19T22:04:41.701Z,30.00
2023-01-19T22:07:10.315Z,29.30
2023-01-19T22:09:38.815Z,29.20
2023-01-19T22:12:10.891Z,28.97
2023-01-19T22:14:46.823Z,29.47
2023-01-19T22:17:15.880Z,29.50
2023-01-19T22:19:44.984Z,29.40
2023-01-19T22:22:15.055Z,29.20
2023-01-19T22:24:47.072Z,28.80
2023-01-19T22:27:19.260Z,29.10
2023-01-19T22:29:53.029Z,28.77
2023-01-19T22:32:21.347Z,28.20
2023-01-19T22:34:49.758Z,29.17
2023-01-19T22:37:18.093Z,29.33
2023-01-19T22:39:46.264Z,29.20
2023-01-19T22:42:14.460Z,28.20
2023-01-19T22:44:44.196Z,28.90
2023-01-19T22:47:12.442Z,28.73
2023-01-19T22:49:40.734Z,27.47
2023-01-19T22:52:08.863Z,28.07
2023-01-19T22:54:37.758Z,28.17
2023-01-19T22:57:07.077Z,28.23
2023-01-19T22:59:35.179Z,28.83
2023-01-19T23:02:05.520Z,29.30
2023-01-19T23:04:33.871Z,28.07
2023-01-19T23:07:02.065Z,27.80
2023-01-19T23:09:30.301Z,29.00
2023-01-19T23:11:58.812Z,28.60
2023-01-19T23:14:27.190Z,29.83
2023-01-19T23:16:55.344Z,30.23
2023-01-19T23:19:24.826Z,31.20
2023-01-19T23:21:53.649Z,32.77
2023-01-19T23:24:21.789Z,34.27
2023-01-19T23:26:50.350Z,34.33
2023-01-19T23:29:19.575Z,35.63
2023-01-19T23:31:50.110Z,35.90
2023-01-19T23:34:18.393Z,37.00
2023-01-19T23:36:47.771Z,38.83
2023-01-19T23:39:18.648Z,38.23
2023-01-19T23:41:47.288Z,39.10
2023-01-19T23:44:36.002Z,39.43
2023-01-19T23:57:42.413Z,41.17
